Terminal Aerodrome Forecast
Issued by NWS Springfield, MO

Current Version | Previous Version | Text Only | Print | Product List | Glossary On
Versions: 1 2 3 4 5 6 7 8 9 10 11 12 13 14 15 16 17 18 19 20 21 22 23 24
654
FTUS43 KSGF 051522 AAB
TAFSGF
TAF AMD
KSGF 051522Z 0515/0612 15012KT 3SM BR OVC003
     FM051600 15012KT 5SM BR SCT007 BKN150
     FM051700 15012KT P6SM SCT020 BKN100
     FM060400 15010KT 4SM -RA BR OVC020
     FM060900 VRB04KT 5SM BR OVC015=

USA.gov is the U.S. government's official web portal to all federal, state and local government web resources and services.